sensor_id;sensor_type;location;lat;lon;timestamp;temperature;humidity
46590;DHT22;32313;48.722;9.362;2023-03-04T00:01:58;-2.60;99.90
46590;DHT22;32313;48.722;9.362;2023-03-04T00:04:24;-2.70;99.90
46590;DHT22;32313;48.722;9.362;2023-03-04T00:06:50;-2.70;99.90
46590;DHT22;32313;48.722;9.362;2023-03-04T00:09:15;-2.80;99.90
46590;DHT22;32313;48.722;9.362;2023-03-04T00:11:41;-2.80;99.90
46590;DHT22;32313;48.722;9.362;2023-03-04T00:14:07;-2.80;99.90
46590;DHT22;32313;48.722;9.362;2023-03-04T00:16:32;-2.80;99.90
46590;DHT22;32313;48.722;9.362;2023-03-04T00:18:58;-2.90;99.90
46590;DHT22;32313;48.722;9.362;2023-03-04T00:21:24;-2.90;99.90
46590;DHT22;32313;48.722;9.362;2023-03-04T00:23:50;-3.00;99.90
46590;DHT22;32313;48.722;9.362;2023-03-04T00:26:15;-3.00;99.90
46590;DHT22;32313;48.722;9.362;2023-03-04T00:28:42;-3.00;99.90
46590;DHT22;32313;48.722;9.362;2023-03-04T00:31:08;-3.00;99.90
46590;DHT22;32313;48.722;9.362;2023-03-04T00:33:34;-3.10;99.90
46590;DHT22;32313;48.722;9.362;2023-03-04T00:36:00;-3.10;99.90
46590;DHT22;32313;48.722;9.362;2023-03-04T00:38:27;-3.10;99.90
46590;DHT22;32313;48.722;9.362;2023-03-04T00:40:53;-3.20;99.90
46590;DHT22;32313;48.722;9.362;2023-03-04T00:43:19;-3.20;99.90
46590;DHT22;32313;48.722;9.362;2023-03-04T00:45:45;-3.20;99.90
46590;DHT22;32313;48.722;9.362;2023-03-04T00:48:13;-3.30;99.90
46590;DHT22;32313;48.722;9.362;2023-03-04T00:50:39;-3.30;99.90
46590;DHT22;32313;48.722;9.362;2023-03-04T00:53:05;-3.40;99.90
46590;DHT22;32313;48.722;9.362;2023-03-04T00:55:31;-3.40;99.90
46590;DHT22;32313;48.722;9.362;2023-03-04T00:57:56;-3.40;99.90
46590;DHT22;32313;48.722;9.362;2023-03-04T01:00:22;-3.40;99.90
46590;DHT22;32313;48.722;9.362;2023-03-04T01:02:49;-3.40;99.90
46590;DHT22;32313;48.722;9.362;2023-03-04T01:05:15;-3.30;99.90
46590;DHT22;32313;48.722;9.362;2023-03-04T01:07:41;-3.30;99.90
46590;DHT22;32313;48.722;9.362;2023-03-04T01:10:07;-3.30;99.90
46590;DHT22;32313;48.722;9.362;2023-03-04T01:12:34;-3.30;99.90
46590;DHT22;32313;48.722;9.362;2023-03-04T01:14:59;-3.40;99.90
46590;DHT22;32313;48.722;9.362;2023-03-04T01:17:25;-3.40;99.90
46590;DHT22;32313;48.722;9.362;2023-03-04T01:19:51;-3.40;99.90
46590;DHT22;32313;48.722;9.362;2023-03-04T01:22:17;-3.30;99.90
46590;DHT22;32313;48.722;9.362;2023-03-04T01:24:44;-3.40;99.90
46590;DHT22;32313;48.722;9.362;2023-03-04T01:27:10;-3.30;99.90
46590;DHT22;32313;48.722;9.362;2023-03-04T01:29:35;-3.30;99.90
46590;DHT22;32313;48.722;9.362;2023-03-04T01:32:01;-3.30;99.90
46590;DHT22;32313;48.722;9.362;2023-03-04T01:34:27;-3.30;99.90
46590;DHT22;32313;48.722;9.362;2023-03-04T01:36:52;-3.30;99.90
46590;DHT22;32313;48.722;9.362;2023-03-04T01:39:18;-3.20;99.90
46590;DHT22;32313;48.722;9.362;2023-03-04T01:41:44;-3.40;99.90
46590;DHT22;32313;48.722;9.362;2023-03-04T01:44:10;-3.40;99.90
46590;DHT22;32313;48.722;9.362;2023-03-04T01:46:37;-3.40;99.90
46590;DHT22;32313;48.722;9.362;2023-03-04T01:49:03;-3.50;99.90
46590;DHT22;32313;48.722;9.362;2023-03-04T01:51:30;-3.60;99.90
46590;DHT22;32313;48.722;9.362;2023-03-04T01:53:56;-3.60;99.90
46590;DHT22;32313;48.722;9.362;2023-03-04T01:56:24;-3.70;99.90
46590;DHT22;32313;48.722;9.362;2023-03-04T01:59:18;-3.70;99.90
46590;DHT22;32313;48.722;9.362;2023-03-04T02:01:51;-3.70;99.90
46590;DHT22;32313;48.722;9.362;2023-03-04T02:04:20;-3.70;99.90
46590;DHT22;32313;48.722;9.362;2023-03-04T02:06:47;-3.80;99.90
46590;DHT22;32313;48.722;9.362;2023-03-04T02:09:14;-3.90;99.90
46590;DHT22;32313;48.722;9.362;2023-03-04T02:11:41;-3.90;99.90
46590;DHT22;32313;48.722;9.362;2023-03-04T02:14:07;-3.90;99.90
46590;DHT22;32313;48.722;9.362;2023-03-04T02:16:34;-3.90;99.90
46590;DHT22;32313;48.722;9.362;2023-03-04T02:18:59;-3.90;99.90
46590;DHT22;32313;48.722;9.362;2023-03-04T02:21:31;-4.00;99.90
46590;DHT22;32313;48.722;9.362;2023-03-04T02:26:41;-4.10;99.90
46590;DHT22;32313;48.722;9.362;2023-03-04T02:29:10;-4.10;99.90
46590;DHT22;32313;48.722;9.362;2023-03-04T02:31:39;-4.10;99.90
46590;DHT22;32313;48.722;9.362;2023-03-04T02:37:09;-4.00;99.90
46590;DHT22;32313;48.722;9.362;2023-03-04T02:39:40;-3.90;99.90
46590;DHT22;32313;48.722;9.362;2023-03-04T02:42:07;-4.00;99.90
46590;DHT22;32313;48.722;9.362;2023-03-04T02:44:39;-4.00;99.90
46590;DHT22;32313;48.722;9.362;2023-03-04T02:47:08;-4.00;99.90
46590;DHT22;32313;48.722;9.362;2023-03-04T02:49:37;-4.00;99.90
46590;DHT22;32313;48.722;9.362;2023-03-04T02:52:06;-3.90;99.90
46590;DHT22;32313;48.722;9.362;2023-03-04T02:54:32;-3.80;99.90
46590;DHT22;32313;48.722;9.362;2023-03-04T02:57:01;-3.80;99.90
46590;DHT22;32313;48.722;9.362;2023-03-04T02:59:30;-3.80;99.90
46590;DHT22;32313;48.722;9.362;2023-03-04T03:01:56;-3.90;99.90
46590;DHT22;32313;48.722;9.362;2023-03-04T03:04:22;-4.00;99.90
46590;DHT22;32313;48.722;9.362;2023-03-04T03:06:51;-4.00;99.90
46590;DHT22;32313;48.722;9.362;2023-03-04T03:09:18;-4.10;99.90
46590;DHT22;32313;48.722;9.362;2023-03-04T03:11:44;-4.10;99.90
46590;DHT22;32313;48.722;9.362;2023-03-04T03:14:10;-4.10;99.90
46590;DHT22;32313;48.722;9.362;2023-03-04T03:16:35;-4.10;99.90
46590;DHT22;32313;48.722;9.362;2023-03-04T03:19:01;-4.10;99.90
46590;DHT22;32313;48.722;9.362;2023-03-04T03:21:27;-4.10;99.90
46590;DHT22;32313;48.722;9.362;2023-03-04T03:23:53;-4.10;99.90
46590;DHT22;32313;48.722;9.362;2023-03-04T03:26:19;-4.10;99.90
46590;DHT22;32313;48.722;9.362;2023-03-04T03:28:45;-4.20;99.90
46590;DHT22;32313;48.722;9.362;2023-03-04T03:31:11;-4.30;99.90
46590;DHT22;32313;48.722;9.362;2023-03-04T03:33:37;-4.30;99.90
46590;DHT22;32313;48.722;9.362;2023-03-04T03:36:04;-4.40;99.90
46590;DHT22;32313;48.722;9.362;2023-03-04T03:38:31;-4.50;99.90
46590;DHT22;32313;48.722;9.362;2023-03-04T03:40:57;-4.50;99.90
46590;DHT22;32313;48.722;9.362;2023-03-04T03:43:23;-4.60;99.90
46590;DHT22;32313;48.722;9.362;2023-03-04T03:45:48;-4.60;99.90
46590;DHT22;32313;48.722;9.362;2023-03-04T03:48:16;-4.60;99.90
46590;DHT22;32313;48.722;9.362;2023-03-04T03:50:42;-4.60;99.90
46590;DHT22;32313;48.722;9.362;2023-03-04T03:53:11;-4.60;99.90
46590;DHT22;32313;48.722;9.362;2023-03-04T03:55:37;-4.60;99.90
46590;DHT22;32313;48.722;9.362;2023-03-04T03:58:04;-4.60;99.90
46590;DHT22;32313;48.722;9.362;2023-03-04T04:00:30;-4.70;99.90
46590;DHT22;32313;48.722;9.362;2023-03-04T04:02:57;-4.70;99.90
46590;DHT22;32313;48.722;9.362;2023-03-04T04:05:23;-4.70;99.90
46590;DHT22;32313;48.722;9.362;2023-03-04T04:07:49;-4.80;99.90
46590;DHT22;32313;48.722;9.362;2023-03-04T04:10:15;-4.80;99.90
46590;DHT22;32313;48.722;9.362;2023-03-04T04:12:40;-4.90;99.90
46590;DHT22;32313;48.722;9.362;2023-03-04T04:15:08;-4.80;99.90
46590;DHT22;32313;48.722;9.362;2023-03-04T04:17:34;-4.70;99.90
46590;DHT22;32313;48.722;9.362;2023-03-04T04:19:59;-4.80;99.90
46590;DHT22;32313;48.722;9.362;2023-03-04T04:22:25;-4.70;99.90
46590;DHT22;32313;48.722;9.362;2023-03-04T04:24:51;-4.80;99.90
46590;DHT22;32313;48.722;9.362;2023-03-04T04:27:16;-4.80;99.90
46590;DHT22;32313;48.722;9.362;2023-03-04T04:29:42;-4.80;99.90
46590;DHT22;32313;48.722;9.362;2023-03-04T04:32:08;-4.90;99.90
46590;DHT22;32313;48.722;9.362;2023-03-04T04:34:34;-4.90;99.90
46590;DHT22;32313;48.722;9.362;2023-03-04T04:36:59;-5.00;99.90
46590;DHT22;32313;48.722;9.362;2023-03-04T04:39:25;-5.00;99.90
46590;DHT22;32313;48.722;9.362;2023-03-04T04:41:51;-5.10;99.90
46590;DHT22;32313;48.722;9.362;2023-03-04T04:44:17;-5.10;99.90
46590;DHT22;32313;48.722;9.362;2023-03-04T04:46:43;-5.10;99.90
46590;DHT22;32313;48.722;9.362;2023-03-04T04:49:08;-5.10;99.90
46590;DHT22;32313;48.722;9.362;2023-03-04T04:51:35;-5.00;99.90
46590;DHT22;32313;48.722;9.362;2023-03-04T04:54:02;-5.00;99.90
46590;DHT22;32313;48.722;9.362;2023-03-04T04:56:28;-5.00;99.90
46590;DHT22;32313;48.722;9.362;2023-03-04T04:58:57;-5.00;99.90
46590;DHT22;32313;48.722;9.362;2023-03-04T05:01:23;-5.00;99.90
46590;DHT22;32313;48.722;9.362;2023-03-04T05:03:49;-5.10;99.90
46590;DHT22;32313;48.722;9.362;2023-03-04T05:06:15;-5.10;99.90
46590;DHT22;32313;48.722;9.362;2023-03-04T05:08:41;-5.10;99.90
46590;DHT22;32313;48.722;9.362;2023-03-04T05:11:07;-5.20;99.90
46590;DHT22;32313;48.722;9.362;2023-03-04T05:13:33;-5.20;99.90
46590;DHT22;32313;48.722;9.362;2023-03-04T05:16:00;-5.20;99.90
46590;DHT22;32313;48.722;9.362;2023-03-04T05:18:26;-5.20;99.90
46590;DHT22;32313;48.722;9.362;2023-03-04T05:20:57;-5.20;99.90
46590;DHT22;32313;48.722;9.362;2023-03-04T05:23:24;-5.20;99.90
46590;DHT22;32313;48.722;9.362;2023-03-04T05:25:50;-5.20;99.90
46590;DHT22;32313;48.722;9.362;2023-03-04T05:28:16;-5.30;99.90
46590;DHT22;32313;48.722;9.362;2023-03-04T05:30:43;-5.30;99.90
46590;DHT22;32313;48.722;9.362;2023-03-04T05:33:10;-5.30;99.90
46590;DHT22;32313;48.722;9.362;2023-03-04T05:35:37;-5.30;99.90
46590;DHT22;32313;48.722;9.362;2023-03-04T05:38:05;-5.40;99.90
46590;DHT22;32313;48.722;9.362;2023-03-04T05:40:32;-5.50;99.90
46590;DHT22;32313;48.722;9.362;2023-03-04T05:42:57;-5.50;99.90
46590;DHT22;32313;48.722;9.362;2023-03-04T05:45:24;-5.50;99.90
46590;DHT22;32313;48.722;9.362;2023-03-04T05:47:50;-5.50;99.90
46590;DHT22;32313;48.722;9.362;2023-03-04T05:50:16;-5.40;99.90
46590;DHT22;32313;48.722;9.362;2023-03-04T05:52:41;-5.40;99.90
46590;DHT22;32313;48.722;9.362;2023-03-04T05:55:07;-5.40;99.90
46590;DHT22;32313;48.722;9.362;2023-03-04T05:57:33;-5.50;99.90
46590;DHT22;32313;48.722;9.362;2023-03-04T05:59:59;-5.40;99.90
46590;DHT22;32313;48.722;9.362;2023-03-04T06:02:24;-5.40;99.90
46590;DHT22;32313;48.722;9.362;2023-03-04T06:04:50;-5.50;99.90
46590;DHT22;32313;48.722;9.362;2023-03-04T06:07:16;-5.60;99.90
46590;DHT22;32313;48.722;9.362;2023-03-04T06:09:41;-5.60;99.90
46590;DHT22;32313;48.722;9.362;2023-03-04T06:12:10;-5.60;99.90
46590;DHT22;32313;48.722;9.362;2023-03-04T06:14:36;-5.60;99.90
46590;DHT22;32313;48.722;9.362;2023-03-04T06:17:02;-5.60;99.90
46590;DHT22;32313;48.722;9.362;2023-03-04T06:19:27;-5.60;99.90
46590;DHT22;32313;48.722;9.362;2023-03-04T06:21:53;-5.50;99.90
46590;DHT22;32313;48.722;9.362;2023-03-04T06:24:19;-5.50;99.90
46590;DHT22;32313;48.722;9.362;2023-03-04T06:26:44;-5.40;99.90
46590;DHT22;32313;48.722;9.362;2023-03-04T06:29:10;-5.30;99.90
46590;DHT22;32313;48.722;9.362;2023-03-04T06:31:36;-5.20;99.90
46590;DHT22;32313;48.722;9.362;2023-03-04T06:34:02;-5.20;99.90
46590;DHT22;32313;48.722;9.362;2023-03-04T06:36:27;-5.20;99.90
46590;DHT22;32313;48.722;9.362;2023-03-04T06:38:53;-5.10;99.90
46590;DHT22;32313;48.722;9.362;2023-03-04T06:41:18;-5.10;99.90
46590;DHT22;32313;48.722;9.362;2023-03-04T06:43:44;-5.10;99.90
46590;DHT22;32313;48.722;9.362;2023-03-04T06:46:10;-5.00;99.90
46590;DHT22;32313;48.722;9.362;2023-03-04T06:48:36;-5.00;99.90
46590;DHT22;32313;48.722;9.362;2023-03-04T06:51:08;-4.90;99.90
46590;DHT22;32313;48.722;9.362;2023-03-04T06:53:35;-4.70;99.90
46590;DHT22;32313;48.722;9.362;2023-03-04T06:56:01;-4.60;99.90
46590;DHT22;32313;48.722;9.362;2023-03-04T06:58:26;-4.50;99.90
46590;DHT22;32313;48.722;9.362;2023-03-04T07:00:52;-4.40;99.90
46590;DHT22;32313;48.722;9.362;2023-03-04T07:03:18;-4.30;99.90
46590;DHT22;32313;48.722;9.362;2023-03-04T07:05:43;-4.20;99.90
46590;DHT22;32313;48.722;9.362;2023-03-04T07:08:09;-4.10;99.90
46590;DHT22;32313;48.722;9.362;2023-03-04T07:10:35;-4.00;99.90
46590;DHT22;32313;48.722;9.362;2023-03-04T07:13:01;-3.80;99.90
46590;DHT22;32313;48.722;9.362;2023-03-04T07:15:27;-3.60;99.90
46590;DHT22;32313;48.722;9.362;2023-03-04T07:17:52;-3.40;99.90
46590;DHT22;32313;48.722;9.362;2023-03-04T07:20:18;-3.30;99.90
46590;DHT22;32313;48.722;9.362;2023-03-04T07:22:44;-3.10;99.90
46590;DHT22;32313;48.722;9.362;2023-03-04T07:25:10;-3.00;99.90
46590;DHT22;32313;48.722;9.362;2023-03-04T07:27:39;-2.80;99.90
46590;DHT22;32313;48.722;9.362;2023-03-04T07:30:06;-2.80;99.90
46590;DHT22;32313;48.722;9.362;2023-03-04T07:32:31;-2.60;99.90
46590;DHT22;32313;48.722;9.362;2023-03-04T07:34:59;-2.50;99.90
46590;DHT22;32313;48.722;9.362;2023-03-04T07:37:24;-2.40;99.90
46590;DHT22;32313;48.722;9.362;2023-03-04T07:39:50;-2.30;99.90
46590;DHT22;32313;48.722;9.362;2023-03-04T07:42:16;-2.20;99.90
46590;DHT22;32313;48.722;9.362;2023-03-04T07:44:50;-2.10;99.90
46590;DHT22;32313;48.722;9.362;2023-03-04T07:47:18;-2.00;99.90
46590;DHT22;32313;48.722;9.362;2023-03-04T07:49:44;-1.90;99.90
46590;DHT22;32313;48.722;9.362;2023-03-04T07:52:10;-1.80;99.90
46590;DHT22;32313;48.722;9.362;2023-03-04T07:54:35;-1.70;99.90
46590;DHT22;32313;48.722;9.362;2023-03-04T07:57:01;-1.60;99.90
46590;DHT22;32313;48.722;9.362;2023-03-04T07:59:27;-1.50;99.90
46590;DHT22;32313;48.722;9.362;2023-03-04T08:01:52;-1.40;99.90
46590;DHT22;32313;48.722;9.362;2023-03-04T08:04:18;-1.30;99.90
46590;DHT22;32313;48.722;9.362;2023-03-04T08:06:43;-1.20;99.90
46590;DHT22;32313;48.722;9.362;2023-03-04T08:09:11;-1.10;99.90
46590;DHT22;32313;48.722;9.362;2023-03-04T08:11:38;-0.90;99.90
46590;DHT22;32313;48.722;9.362;2023-03-04T08:14:04;-0.80;99.90
46590;DHT22;32313;48.722;9.362;2023-03-04T08:16:30;-0.70;99.90
46590;DHT22;32313;48.722;9.362;2023-03-04T08:18:57;-0.50;99.90
46590;DHT22;32313;48.722;9.362;2023-03-04T08:21:25;-0.40;99.90
46590;DHT22;32313;48.722;9.362;2023-03-04T08:23:52;-0.40;99.90
46590;DHT22;32313;48.722;9.362;2023-03-04T08:26:23;-0.30;99.90
46590;DHT22;32313;48.722;9.362;2023-03-04T08:28:50;-0.20;99.90
46590;DHT22;32313;48.722;9.362;2023-03-04T08:31:17;-0.10;99.90
46590;DHT22;32313;48.722;9.362;2023-03-04T08:33:43;-0.10;99.90
46590;DHT22;32313;48.722;9.362;2023-03-04T08:36:09;0.00;99.90
46590;DHT22;32313;48.722;9.362;2023-03-04T08:38:35;0.10;99.90
46590;DHT22;32313;48.722;9.362;2023-03-04T08:41:01;0.20;99.90
46590;DHT22;32313;48.722;9.362;2023-03-04T08:43:28;0.30;99.90
46590;DHT22;32313;48.722;9.362;2023-03-04T08:45:55;0.40;99.90
46590;DHT22;32313;48.722;9.362;2023-03-04T08:48:21;0.40;99.90
46590;DHT22;32313;48.722;9.362;2023-03-04T08:50:50;0.40;99.90
46590;DHT22;32313;48.722;9.362;2023-03-04T08:53:17;0.40;99.90
46590;DHT22;32313;48.722;9.362;2023-03-04T08:55:43;0.40;99.90
46590;DHT22;32313;48.722;9.362;2023-03-04T08:58:10;0.40;99.90
46590;DHT22;32313;48.722;9.362;2023-03-04T09:00:37;0.40;99.90
46590;DHT22;32313;48.722;9.362;2023-03-04T09:03:04;0.40;99.90
46590;DHT22;32313;48.722;9.362;2023-03-04T09:05:31;0.40;99.90
46590;DHT22;32313;48.722;9.362;2023-03-04T09:07:57;0.40;99.90
46590;DHT22;32313;48.722;9.362;2023-03-04T09:10:24;0.40;99.90
46590;DHT22;32313;48.722;9.362;2023-03-04T09:12:50;0.50;99.90
46590;DHT22;32313;48.722;9.362;2023-03-04T09:15:16;0.50;99.90
46590;DHT22;32313;48.722;9.362;2023-03-04T09:17:42;0.40;99.90
46590;DHT22;32313;48.722;9.362;2023-03-04T09:20:09;0.50;99.90
46590;DHT22;32313;48.722;9.362;2023-03-04T09:22:41;0.60;99.90
46590;DHT22;32313;48.722;9.362;2023-03-04T09:25:08;0.70;99.90
46590;DHT22;32313;48.722;9.362;2023-03-04T09:27:33;0.70;99.90
46590;DHT22;32313;48.722;9.362;2023-03-04T09:29:59;0.70;99.90
46590;DHT22;32313;48.722;9.362;2023-03-04T09:32:25;0.80;99.90
46590;DHT22;32313;48.722;9.362;2023-03-04T09:34:50;0.80;99.90
46590;DHT22;32313;48.722;9.362;2023-03-04T09:37:16;0.80;99.90
46590;DHT22;32313;48.722;9.362;2023-03-04T09:39:42;0.80;99.90
46590;DHT22;32313;48.722;9.362;2023-03-04T09:42:10;0.80;99.90
46590;DHT22;32313;48.722;9.362;2023-03-04T09:44:42;0.80;99.90
46590;DHT22;32313;48.722;9.362;2023-03-04T09:47:12;0.90;99.90
46590;DHT22;32313;48.722;9.362;2023-03-04T09:49:41;0.90;99.90
46590;DHT22;32313;48.722;9.362;2023-03-04T09:55:41;1.10;99.90
46590;DHT22;32313;48.722;9.362;2023-03-04T10:01:01;1.20;99.90
46590;DHT22;32313;48.722;9.362;2023-03-04T10:03:44;1.40;99.90
46590;DHT22;32313;48.722;9.362;2023-03-04T10:06:16;1.60;99.90
46590;DHT22;32313;48.722;9.362;2023-03-04T10:09:42;1.60;99.90
46590;DHT22;32313;48.722;9.362;2023-03-04T10:14:32;1.90;99.90
46590;DHT22;32313;48.722;9.362;2023-03-04T10:17:11;1.90;99.90
46590;DHT22;32313;48.722;9.362;2023-03-04T10:24:58;1.90;99.90
46590;DHT22;32313;48.722;9.362;2023-03-04T10:27:25;2.10;99.90
46590;DHT22;32313;48.722;9.362;2023-03-04T10:29:51;2.20;99.90
46590;DHT22;32313;48.722;9.362;2023-03-04T10:32:19;2.10;99.90
46590;DHT22;32313;48.722;9.362;2023-03-04T10:34:45;2.00;99.90
46590;DHT22;32313;48.722;9.362;2023-03-04T10:37:10;1.90;99.90
46590;DHT22;32313;48.722;9.362;2023-03-04T10:42:21;1.90;99.90
46590;DHT22;32313;48.722;9.362;2023-03-04T10:44:55;2.00;99.90
46590;DHT22;32313;48.722;9.362;2023-03-04T10:47:27;2.10;99.90
46590;DHT22;32313;48.722;9.362;2023-03-04T10:49:55;2.10;99.90
46590;DHT22;32313;48.722;9.362;2023-03-04T10:52:40;2.00;99.90
46590;DHT22;32313;48.722;9.362;2023-03-04T10:55:17;2.00;99.90
46590;DHT22;32313;48.722;9.362;2023-03-04T10:57:48;2.10;99.90
46590;DHT22;32313;48.722;9.362;2023-03-04T11:02:47;2.30;99.90
46590;DHT22;32313;48.722;9.362;2023-03-04T11:05:23;2.50;99.90
46590;DHT22;32313;48.722;9.362;2023-03-04T11:07:50;3.20;99.90
46590;DHT22;32313;48.722;9.362;2023-03-04T11:10:22;3.60;99.90
46590;DHT22;32313;48.722;9.362;2023-03-04T11:15:24;3.70;99.90
46590;DHT22;32313;48.722;9.362;2023-03-04T11:18:05;3.60;99.90
46590;DHT22;32313;48.722;9.362;2023-03-04T11:20:36;3.50;99.90
46590;DHT22;32313;48.722;9.362;2023-03-04T11:23:13;3.40;99.90
46590;DHT22;32313;48.722;9.362;2023-03-04T11:26:30;3.40;99.90
46590;DHT22;32313;48.722;9.362;2023-03-04T11:28:44;3.30;99.90
46590;DHT22;32313;48.722;9.362;2023-03-04T11:31:20;3.40;99.90
46590;DHT22;32313;48.722;9.362;2023-03-04T11:36:50;3.60;99.90
46590;DHT22;32313;48.722;9.362;2023-03-04T11:39:31;3.70;99.90
46590;DHT22;32313;48.722;9.362;2023-03-04T11:42:27;3.70;99.90
46590;DHT22;32313;48.722;9.362;2023-03-04T11:44:50;3.80;99.90
46590;DHT22;32313;48.722;9.362;2023-03-04T11:47:55;3.80;99.90
46590;DHT22;32313;48.722;9.362;2023-03-04T11:50:47;3.70;99.90
46590;DHT22;32313;48.722;9.362;2023-03-04T11:53:41;3.40;99.90
46590;DHT22;32313;48.722;9.362;2023-03-04T11:59:00;3.40;99.90
46590;DHT22;32313;48.722;9.362;2023-03-04T12:10:02;3.50;99.90
46590;DHT22;32313;48.722;9.362;2023-03-04T12:18:32;3.40;99.90
46590;DHT22;32313;48.722;9.362;2023-03-04T12:21:16;3.40;99.90
46590;DHT22;32313;48.722;9.362;2023-03-04T12:26:30;3.30;99.90
46590;DHT22;32313;48.722;9.362;2023-03-04T12:31:40;3.40;99.90
46590;DHT22;32313;48.722;9.362;2023-03-04T12:37:35;3.70;99.90
46590;DHT22;32313;48.722;9.362;2023-03-04T12:43:08;3.80;99.90
46590;DHT22;32313;48.722;9.362;2023-03-04T12:45:45;3.90;99.90
46590;DHT22;32313;48.722;9.362;2023-03-04T12:50:55;3.90;99.90
46590;DHT22;32313;48.722;9.362;2023-03-04T12:58:50;3.80;99.90
46590;DHT22;32313;48.722;9.362;2023-03-04T13:01:25;3.80;99.90
46590;DHT22;32313;48.722;9.362;2023-03-04T13:04:08;3.90;99.90
46590;DHT22;32313;48.722;9.362;2023-03-04T13:09:28;3.80;99.90
46590;DHT22;32313;48.722;9.362;2023-03-04T13:12:03;3.80;99.90
46590;DHT22;32313;48.722;9.362;2023-03-04T13:14:30;3.80;99.90
46590;DHT22;32313;48.722;9.362;2023-03-04T13:16:59;3.80;99.90
46590;DHT22;32313;48.722;9.362;2023-03-04T13:19:46;3.80;99.90
46590;DHT22;32313;48.722;9.362;2023-03-04T13:24:55;3.80;99.90
46590;DHT22;32313;48.722;9.362;2023-03-04T13:27:47;3.80;99.90
46590;DHT22;32313;48.722;9.362;2023-03-04T13:33:38;3.60;99.90
46590;DHT22;32313;48.722;9.362;2023-03-04T13:41:22;3.60;99.90
46590;DHT22;32313;48.722;9.362;2023-03-04T13:51:42;3.40;99.90
46590;DHT22;32313;48.722;9.362;2023-03-04T13:59:21;3.40;99.90
46590;DHT22;32313;48.722;9.362;2023-03-04T14:02:00;3.30;99.90
46590;DHT22;32313;48.722;9.362;2023-03-04T14:04:33;3.30;99.90
46590;DHT22;32313;48.722;9.362;2023-03-04T14:07:01;3.20;99.90
46590;DHT22;32313;48.722;9.362;2023-03-04T14:09:32;3.20;99.90
46590;DHT22;32313;48.722;9.362;2023-03-04T14:12:01;3.20;99.90
46590;DHT22;32313;48.722;9.362;2023-03-04T14:15:51;3.20;99.90
46590;DHT22;32313;48.722;9.362;2023-03-04T14:17:50;3.20;99.90
46590;DHT22;32313;48.722;9.362;2023-03-04T14:20:21;3.20;99.90
46590;DHT22;32313;48.722;9.362;2023-03-04T14:22:48;3.20;99.90
46590;DHT22;32313;48.722;9.362;2023-03-04T14:27:40;3.00;99.90
46590;DHT22;32313;48.722;9.362;2023-03-04T14:30:20;2.90;99.90
46590;DHT22;32313;48.722;9.362;2023-03-04T14:32:46;2.80;99.90
46590;DHT22;32313;48.722;9.362;2023-03-04T14:35:26;2.80;99.90
46590;DHT22;32313;48.722;9.362;2023-03-04T14:38:12;2.90;99.90
46590;DHT22;32313;48.722;9.362;2023-03-04T14:40:43;2.90;99.90
46590;DHT22;32313;48.722;9.362;2023-03-04T14:43:15;2.90;99.90
46590;DHT22;32313;48.722;9.362;2023-03-04T14:45:43;2.90;99.90
46590;DHT22;32313;48.722;9.362;2023-03-04T14:48:18;2.80;99.90
46590;DHT22;32313;48.722;9.362;2023-03-04T14:50:49;2.80;99.90
46590;DHT22;32313;48.722;9.362;2023-03-04T14:53:17;2.90;99.90
46590;DHT22;32313;48.722;9.362;2023-03-04T14:56:03;2.90;99.90
46590;DHT22;32313;48.722;9.362;2023-03-04T15:01:06;2.90;99.90
46590;DHT22;32313;48.722;9.362;2023-03-04T15:03:33;2.90;99.90
46590;DHT22;32313;48.722;9.362;2023-03-04T15:06:16;2.80;99.90
46590;DHT22;32313;48.722;9.362;2023-03-04T15:08:43;2.70;99.90
46590;DHT22;32313;48.722;9.362;2023-03-04T15:11:19;2.70;99.90
46590;DHT22;32313;48.722;9.362;2023-03-04T15:13:52;2.70;99.90
46590;DHT22;32313;48.722;9.362;2023-03-04T15:16:22;2.70;99.90
46590;DHT22;32313;48.722;9.362;2023-03-04T15:19:27;2.60;99.90
46590;DHT22;32313;48.722;9.362;2023-03-04T15:22:03;2.60;99.90
46590;DHT22;32313;48.722;9.362;2023-03-04T15:24:29;2.50;99.90
46590;DHT22;32313;48.722;9.362;2023-03-04T15:26:54;2.50;99.90
46590;DHT22;32313;48.722;9.362;2023-03-04T15:29:21;2.50;99.90
46590;DHT22;32313;48.722;9.362;2023-03-04T15:31:47;2.50;99.90
46590;DHT22;32313;48.722;9.362;2023-03-04T15:34:15;2.40;99.90
46590;DHT22;32313;48.722;9.362;2023-03-04T15:36:46;2.40;99.90
46590;DHT22;32313;48.722;9.362;2023-03-04T15:39:15;2.40;99.90
46590;DHT22;32313;48.722;9.362;2023-03-04T15:41:41;2.30;99.90
46590;DHT22;32313;48.722;9.362;2023-03-04T15:44:08;2.30;99.90
46590;DHT22;32313;48.722;9.362;2023-03-04T15:46:34;2.30;99.90
46590;DHT22;32313;48.722;9.362;2023-03-04T15:49:00;2.30;99.90
46590;DHT22;32313;48.722;9.362;2023-03-04T15:51:25;2.30;99.90
46590;DHT22;32313;48.722;9.362;2023-03-04T15:53:54;2.30;99.90
46590;DHT22;32313;48.722;9.362;2023-03-04T15:56:22;2.20;99.90
46590;DHT22;32313;48.722;9.362;2023-03-04T15:58:56;2.20;99.90
46590;DHT22;32313;48.722;9.362;2023-03-04T16:01:22;2.20;99.90
46590;DHT22;32313;48.722;9.362;2023-03-04T16:03:49;2.10;99.90
46590;DHT22;32313;48.722;9.362;2023-03-04T16:06:16;2.10;99.90
46590;DHT22;32313;48.722;9.362;2023-03-04T16:08:46;2.10;99.90
46590;DHT22;32313;48.722;9.362;2023-03-04T16:11:17;2.10;99.90
46590;DHT22;32313;48.722;9.362;2023-03-04T16:13:43;2.10;99.90
46590;DHT22;32313;48.722;9.362;2023-03-04T16:16:10;2.00;99.90
46590;DHT22;32313;48.722;9.362;2023-03-04T16:18:38;2.00;99.90
46590;DHT22;32313;48.722;9.362;2023-03-04T16:21:05;2.00;99.90
46590;DHT22;32313;48.722;9.362;2023-03-04T16:23:37;1.90;99.90
46590;DHT22;32313;48.722;9.362;2023-03-04T16:26:13;1.90;99.90
46590;DHT22;32313;48.722;9.362;2023-03-04T16:28:41;1.90;99.90
46590;DHT22;32313;48.722;9.362;2023-03-04T16:31:07;1.90;99.90
46590;DHT22;32313;48.722;9.362;2023-03-04T16:33:34;1.90;99.90
46590;DHT22;32313;48.722;9.362;2023-03-04T16:35:59;1.90;99.90
46590;DHT22;32313;48.722;9.362;2023-03-04T16:38:30;1.90;99.90
46590;DHT22;32313;48.722;9.362;2023-03-04T16:40:57;1.80;99.90
46590;DHT22;32313;48.722;9.362;2023-03-04T16:43:24;1.80;99.90
46590;DHT22;32313;48.722;9.362;2023-03-04T16:45:50;1.80;99.90
46590;DHT22;32313;48.722;9.362;2023-03-04T16:48:16;1.80;99.90
46590;DHT22;32313;48.722;9.362;2023-03-04T16:50:42;1.80;99.90
46590;DHT22;32313;48.722;9.362;2023-03-04T16:53:32;1.70;99.90
46590;DHT22;32313;48.722;9.362;2023-03-04T16:56:06;1.70;99.90
46590;DHT22;32313;48.722;9.362;2023-03-04T16:58:35;1.70;99.90
46590;DHT22;32313;48.722;9.362;2023-03-04T17:01:00;1.70;99.90
46590;DHT22;32313;48.722;9.362;2023-03-04T17:03:27;1.70;99.90
46590;DHT22;32313;48.722;9.362;2023-03-04T17:05:52;1.70;99.90
46590;DHT22;32313;48.722;9.362;2023-03-04T17:08:18;1.70;99.90
46590;DHT22;32313;48.722;9.362;2023-03-04T17:10:44;1.70;99.90
46590;DHT22;32313;48.722;9.362;2023-03-04T17:13:09;1.70;99.90
46590;DHT22;32313;48.722;9.362;2023-03-04T17:15:35;1.70;99.90
46590;DHT22;32313;48.722;9.362;2023-03-04T17:18:01;1.70;99.90
46590;DHT22;32313;48.722;9.362;2023-03-04T17:20:27;1.70;99.90
46590;DHT22;32313;48.722;9.362;2023-03-04T17:22:53;1.70;99.90
46590;DHT22;32313;48.722;9.362;2023-03-04T17:25:18;1.70;99.90
46590;DHT22;32313;48.722;9.362;2023-03-04T17:27:44;1.70;99.90